Terminal Aerodrome Forecast
Issued by NWS

Home | Current Version | Previous Version | Text Only | Print | Product List | Glossary Off
Versions: 1 2 3 4 5 6 7 8 9 10 11 12 13 14 15 16 17 18 19 20 21

384
FTUS43 KOAX 170527
TAFCDR
TAF
KCDR 170527Z 1706/1806 VRB04KT P6SM SCT100
     FM170800 VRB03KT P6SM BKN015 OVC050
     FM171700 18015G25KT P6SM SCT050 BKN100
     FM180000 19010KT P6SM VCSH SCT020 BKN050=

USA.gov is the U.S. government's official web portal to all federal, state and local government web resources and services.